sensor_id;sensor_type;location;lat;lon;timestamp;pressure;altitude;pressure_sealevel;temperature;humidity
30343;BME280;17145;49.902;8.680;'2023-03-24 00:57:49';99060;;;13;51
30343;BME280;17145;49.902;8.680;'2023-03-24 01:00:20';99060;;;13;51
30343;BME280;17145;49.902;8.680;'2023-03-24 01:02:48';99040;;;13;51
30343;BME280;17145;49.902;8.680;'2023-03-24 01:05:18';99040;;;13;51
30343;BME280;17145;49.902;8.680;'2023-03-24 01:07:47';99040;;;13;51
30343;BME280;17145;49.902;8.680;'2023-03-24 01:10:17';99040;;;13;51
30343;BME280;17145;49.902;8.680;'2023-03-24 01:12:45';99040;;;13;52
30343;BME280;17145;49.902;8.680;'2023-03-24 01:15:15';99040;;;13;51
30343;BME280;17145;49.902;8.680;'2023-03-24 01:17:43';99040;;;13;51
30343;BME280;17145;49.902;8.680;'2023-03-24 01:20:13';99040;;;13;51
30343;BME280;17145;49.902;8.680;'2023-03-24 01:22:42';99040;;;13;51
30343;BME280;17145;49.902;8.680;'2023-03-24 01:25:11';99040;;;13;50
30343;BME280;17145;49.902;8.680;'2023-03-24 01:27:39';99030;;;13;50
30343;BME280;17145;49.902;8.680;'2023-03-24 01:30:10';99030;;;13;50
30343;BME280;17145;49.902;8.680;'2023-03-24 01:32:38';99030;;;13;51
30343;BME280;17145;49.902;8.680;'2023-03-24 01:35:08';99020;;;13;50
30343;BME280;17145;49.902;8.680;'2023-03-24 01:37:36';99020;;;13;50
30343;BME280;17145;49.902;8.680;'2023-03-24 01:40:04';99000;;;13;50
30343;BME280;17145;49.902;8.680;'2023-03-24 01:42:34';99000;;;13;50
30343;BME280;17145;49.902;8.680;'2023-03-24 01:45:02';99000;;;13;50
30343;BME280;17145;49.902;8.680;'2023-03-24 01:47:31';98990;;;13;49
30343;BME280;17145;49.902;8.680;'2023-03-24 01:49:58';98980;;;14;50
30343;BME280;17145;49.902;8.680;'2023-03-24 01:52:26';98980;;;14;50
30343;BME280;17145;49.902;8.680;'2023-03-24 01:54:53';98970;;;14;50
30343;BME280;17145;49.902;8.680;'2023-03-24 01:57:21';98970;;;13;50
30343;BME280;17145;49.902;8.680;'2023-03-24 01:59:49';98960;;;14;50
30343;BME280;17145;49.902;8.680;'2023-03-24 02:02:19';98960;;;14;50
30343;BME280;17145;49.902;8.680;'2023-03-24 02:04:47';98960;;;14;50
30343;BME280;17145;49.902;8.680;'2023-03-24 02:07:14';98950;;;14;50
30343;BME280;17145;49.902;8.680;'2023-03-24 02:09:43';98940;;;14;50
30343;BME280;17145;49.902;8.680;'2023-03-24 02:12:11';98930;;;14;51
30343;BME280;17145;49.902;8.680;'2023-03-24 02:14:38';98920;;;14;51
30343;BME280;17145;49.902;8.680;'2023-03-24 02:17:06';98920;;;13;52
30343;BME280;17145;49.902;8.680;'2023-03-24 02:19:33';98910;;;13;52
30343;BME280;17145;49.902;8.680;'2023-03-24 02:22:01';98920;;;13;52
30343;BME280;17145;49.902;8.680;'2023-03-24 02:24:29';98920;;;13;52
30343;BME280;17145;49.902;8.680;'2023-03-24 02:26:57';98920;;;13;52
30343;BME280;17145;49.902;8.680;'2023-03-24 02:29:25';98920;;;13;52
30343;BME280;17145;49.902;8.680;'2023-03-24 02:31:52';98920;;;13;53
30343;BME280;17145;49.902;8.680;'2023-03-24 02:34:19';98920;;;13;52
30343;BME280;17145;49.902;8.680;'2023-03-24 02:36:47';98920;;;13;52
30343;BME280;17145;49.902;8.680;'2023-03-24 02:39:17';98920;;;13;52
30343;BME280;17145;49.902;8.680;'2023-03-24 02:41:45';98920;;;13;52
30343;BME280;17145;49.902;8.680;'2023-03-24 02:44:24';98910;;;13;52
30343;BME280;17145;49.902;8.680;'2023-03-24 02:46:52';98920;;;13;52
30343;BME280;17145;49.902;8.680;'2023-03-24 02:49:21';98900;;;13;52
30343;BME280;17145;49.902;8.680;'2023-03-24 02:51:52';98900;;;13;52
30343;BME280;17145;49.902;8.680;'2023-03-24 02:54:23';98890;;;13;52
30343;BME280;17145;49.902;8.680;'2023-03-24 02:56:55';98880;;;13;52
30343;BME280;17145;49.902;8.680;'2023-03-24 02:59:28';98880;;;13;53
30343;BME280;17145;49.902;8.680;'2023-03-24 03:01:56';98880;;;13;52
30343;BME280;17145;49.902;8.680;'2023-03-24 03:04:24';98890;;;13;52
30343;BME280;17145;49.902;8.680;'2023-03-24 03:06:52';98880;;;13;51
30343;BME280;17145;49.902;8.680;'2023-03-24 03:09:20';98880;;;13;52
30343;BME280;17145;49.902;8.680;'2023-03-24 03:11:47';98870;;;13;50
30343;BME280;17145;49.902;8.680;'2023-03-24 03:19:31';98860;;;13;49
30343;BME280;17145;49.902;8.680;'2023-03-24 03:22:18';98840;;;13;48
30343;BME280;17145;49.902;8.680;'2023-03-24 03:25:07';98850;;;13;48
30343;BME280;17145;49.902;8.680;'2023-03-24 03:27:49';98830;;;13;48
30343;BME280;17145;49.902;8.680;'2023-03-24 03:33:14';98820;;;13;48
30343;BME280;17145;49.902;8.680;'2023-03-24 03:38:54';98810;;;13;47
30343;BME280;17145;49.902;8.680;'2023-03-24 03:41:28';98800;;;13;47
30343;BME280;17145;49.902;8.680;'2023-03-24 03:44:04';98790;;;13;47
30343;BME280;17145;49.902;8.680;'2023-03-24 03:46:37';98780;;;13;47
30343;BME280;17145;49.902;8.680;'2023-03-24 03:49:16';98780;;;13;47
30343;BME280;17145;49.902;8.680;'2023-03-24 03:51:51';98780;;;13;47
30343;BME280;17145;49.902;8.680;'2023-03-24 03:54:25';98780;;;13;46
30343;BME280;17145;49.902;8.680;'2023-03-24 03:56:59';98790;;;13;46
30343;BME280;17145;49.902;8.680;'2023-03-24 03:59:35';98810;;;13;46
30343;BME280;17145;49.902;8.680;'2023-03-24 04:02:06';98820;;;13;46
30343;BME280;17145;49.902;8.680;'2023-03-24 04:04:41';98810;;;13;46
30343;BME280;17145;49.902;8.680;'2023-03-24 04:07:10';98810;;;13;46
30343;BME280;17145;49.902;8.680;'2023-03-24 04:09:45';98800;;;13;46
30343;BME280;17145;49.902;8.680;'2023-03-24 04:12:15';98790;;;13;46
30343;BME280;17145;49.902;8.680;'2023-03-24 04:14:47';98800;;;13;46
30343;BME280;17145;49.902;8.680;'2023-03-24 04:17:20';98800;;;13;45
30343;BME280;17145;49.902;8.680;'2023-03-24 04:19:53';98800;;;13;45
30343;BME280;17145;49.902;8.680;'2023-03-24 04:22:24';98810;;;13;46
30343;BME280;17145;49.902;8.680;'2023-03-24 04:24:56';98790;;;13;46
30343;BME280;17145;49.902;8.680;'2023-03-24 04:27:28';98800;;;13;46
30343;BME280;17145;49.902;8.680;'2023-03-24 04:29:59';98790;;;13;46
30343;BME280;17145;49.902;8.680;'2023-03-24 04:32:31';98790;;;13;46
30343;BME280;17145;49.902;8.680;'2023-03-24 04:35:06';98790;;;13;46
30343;BME280;17145;49.902;8.680;'2023-03-24 04:37:40';98790;;;13;47
30343;BME280;17145;49.902;8.680;'2023-03-24 04:40:14';98790;;;13;46
30343;BME280;17145;49.902;8.680;'2023-03-24 04:42:41';98790;;;14;46
30343;BME280;17145;49.902;8.680;'2023-03-24 04:45:10';98790;;;14;46
30343;BME280;17145;49.902;8.680;'2023-03-24 04:47:39';98790;;;14;46
30343;BME280;17145;49.902;8.680;'2023-03-24 04:50:08';98790;;;14;46
30343;BME280;17145;49.902;8.680;'2023-03-24 04:52:38';98800;;;13;46
30343;BME280;17145;49.902;8.680;'2023-03-24 04:55:08';98810;;;14;46
30343;BME280;17145;49.902;8.680;'2023-03-24 04:57:35';98800;;;14;46
30343;BME280;17145;49.902;8.680;'2023-03-24 05:00:05';98810;;;13;46
30343;BME280;17145;49.902;8.680;'2023-03-24 05:02:44';98820;;;13;47
30343;BME280;17145;49.902;8.680;'2023-03-24 05:05:22';98810;;;14;48
30343;BME280;17145;49.902;8.680;'2023-03-24 05:10:54';98820;;;13;50
30343;BME280;17145;49.902;8.680;'2023-03-24 05:13:31';98830;;;13;49
30343;BME280;17145;49.902;8.680;'2023-03-24 05:18:43';98830;;;14;49
30343;BME280;17145;49.902;8.680;'2023-03-24 05:21:25';98830;;;13;49
30343;BME280;17145;49.902;8.680;'2023-03-24 05:24:04';98840;;;13;49
30343;BME280;17145;49.902;8.680;'2023-03-24 05:26:40';98850;;;13;50
30343;BME280;17145;49.902;8.680;'2023-03-24 05:29:15';98850;;;13;50
30343;BME280;17145;49.902;8.680;'2023-03-24 05:31:50';98860;;;13;50
30343;BME280;17145;49.902;8.680;'2023-03-24 05:34:22';98870;;;13;49
30343;BME280;17145;49.902;8.680;'2023-03-24 05:36:53';98850;;;13;50
30343;BME280;17145;49.902;8.680;'2023-03-24 05:39:25';98850;;;13;49
30343;BME280;17145;49.902;8.680;'2023-03-24 05:41:56';98850;;;13;50
30343;BME280;17145;49.902;8.680;'2023-03-24 05:44:24';98860;;;13;50
30343;BME280;17145;49.902;8.680;'2023-03-24 05:46:55';98870;;;13;51
30343;BME280;17145;49.902;8.680;'2023-03-24 05:49:24';98870;;;13;51
30343;BME280;17145;49.902;8.680;'2023-03-24 05:51:51';98870;;;13;53
30343;BME280;17145;49.902;8.680;'2023-03-24 05:54:20';98860;;;13;53
30343;BME280;17145;49.902;8.680;'2023-03-24 05:56:50';98870;;;13;54
30343;BME280;17145;49.902;8.680;'2023-03-24 05:59:19';98860;;;13;53
30343;BME280;17145;49.902;8.680;'2023-03-24 06:01:47';98860;;;12;56
30343;BME280;17145;49.902;8.680;'2023-03-24 06:04:14';98870;;;13;55
30343;BME280;17145;49.902;8.680;'2023-03-24 06:06:41';98860;;;13;55
30343;BME280;17145;49.902;8.680;'2023-03-24 06:09:09';98850;;;13;55
30343;BME280;17145;49.902;8.680;'2023-03-24 06:11:37';98840;;;12;57
30343;BME280;17145;49.902;8.680;'2023-03-24 06:14:05';98840;;;12;57
30343;BME280;17145;49.902;8.680;'2023-03-24 06:16:32';98830;;;12;58
30343;BME280;17145;49.902;8.680;'2023-03-24 06:18:59';98830;;;12;58
30343;BME280;17145;49.902;8.680;'2023-03-24 06:21:27';98840;;;12;60
30343;BME280;17145;49.902;8.680;'2023-03-24 06:23:54';98820;;;12;60
30343;BME280;17145;49.902;8.680;'2023-03-24 06:26:22';98810;;;12;60
30343;BME280;17145;49.902;8.680;'2023-03-24 06:28:50';98810;;;11;62
30343;BME280;17145;49.902;8.680;'2023-03-24 06:31:17';98800;;;12;61
30343;BME280;17145;49.902;8.680;'2023-03-24 06:33:45';98800;;;12;61
30343;BME280;17145;49.902;8.680;'2023-03-24 06:36:12';98820;;;12;61
30343;BME280;17145;49.902;8.680;'2023-03-24 06:38:39';98840;;;12;60
30343;BME280;17145;49.902;8.680;'2023-03-24 06:41:07';98850;;;12;61
30343;BME280;17145;49.902;8.680;'2023-03-24 06:43:35';98860;;;12;60
30343;BME280;17145;49.902;8.680;'2023-03-24 06:46:02';98860;;;12;60
30343;BME280;17145;49.902;8.680;'2023-03-24 06:48:30';98860;;;12;59
30343;BME280;17145;49.902;8.680;'2023-03-24 06:50:58';98870;;;12;59
30343;BME280;17145;49.902;8.680;'2023-03-24 06:53:26';98870;;;12;59
30343;BME280;17145;49.902;8.680;'2023-03-24 06:55:54';98870;;;12;59
30343;BME280;17145;49.902;8.680;'2023-03-24 06:58:21';98870;;;12;59
30343;BME280;17145;49.902;8.680;'2023-03-24 07:00:49';98880;;;12;59
30343;BME280;17145;49.902;8.680;'2023-03-24 07:03:17';98880;;;12;58
30343;BME280;17145;49.902;8.680;'2023-03-24 07:05:44';98900;;;12;58
30343;BME280;17145;49.902;8.680;'2023-03-24 07:08:12';98900;;;12;58
30343;BME280;17145;49.902;8.680;'2023-03-24 07:10:39';98900;;;12;59
30343;BME280;17145;49.902;8.680;'2023-03-24 07:13:07';98920;;;12;59
30343;BME280;17145;49.902;8.680;'2023-03-24 07:15:34';98920;;;12;58
30343;BME280;17145;49.902;8.680;'2023-03-24 07:18:02';98920;;;12;59
30343;BME280;17145;49.902;8.680;'2023-03-24 07:20:30';98910;;;12;58
30343;BME280;17145;49.902;8.680;'2023-03-24 07:22:57';98900;;;12;58
30343;BME280;17145;49.902;8.680;'2023-03-24 07:25:25';98900;;;12;58
30343;BME280;17145;49.902;8.680;'2023-03-24 07:27:52';98890;;;13;57
30343;BME280;17145;49.902;8.680;'2023-03-24 07:30:20';98890;;;12;58
30343;BME280;17145;49.902;8.680;'2023-03-24 07:32:47';98890;;;12;57
30343;BME280;17145;49.902;8.680;'2023-03-24 07:35:16';98890;;;12;57
30343;BME280;17145;49.902;8.680;'2023-03-24 07:37:43';98890;;;12;57
30343;BME280;17145;49.902;8.680;'2023-03-24 07:40:12';98890;;;13;57
30343;BME280;17145;49.902;8.680;'2023-03-24 07:42:40';98880;;;13;57
30343;BME280;17145;49.902;8.680;'2023-03-24 07:45:09';98880;;;12;57
30343;BME280;17145;49.902;8.680;'2023-03-24 07:47:36';98890;;;13;56
30343;BME280;17145;49.902;8.680;'2023-03-24 07:50:05';98900;;;12;56
30343;BME280;17145;49.902;8.680;'2023-03-24 07:52:33';98900;;;12;56
30343;BME280;17145;49.902;8.680;'2023-03-24 07:55:00';98900;;;13;56
30343;BME280;17145;49.902;8.680;'2023-03-24 07:57:28';98890;;;13;56
30343;BME280;17145;49.902;8.680;'2023-03-24 07:59:55';98890;;;12;56
30343;BME280;17145;49.902;8.680;'2023-03-24 08:02:23';98890;;;13;55
30343;BME280;17145;49.902;8.680;'2023-03-24 08:04:50';98890;;;12;56
30343;BME280;17145;49.902;8.680;'2023-03-24 08:07:18';98900;;;13;55
30343;BME280;17145;49.902;8.680;'2023-03-24 08:09:45';98900;;;13;55
30343;BME280;17145;49.902;8.680;'2023-03-24 08:12:13';98900;;;13;54
30343;BME280;17145;49.902;8.680;'2023-03-24 08:14:40';98900;;;13;55
30343;BME280;17145;49.902;8.680;'2023-03-24 08:17:08';98900;;;13;55
30343;BME280;17145;49.902;8.680;'2023-03-24 08:19:35';98900;;;13;54
30343;BME280;17145;49.902;8.680;'2023-03-24 08:22:02';98910;;;13;55
30343;BME280;17145;49.902;8.680;'2023-03-24 08:24:30';98910;;;13;55
30343;BME280;17145;49.902;8.680;'2023-03-24 08:26:57';98920;;;12;55
30343;BME280;17145;49.902;8.680;'2023-03-24 08:29:25';98910;;;12;56
30343;BME280;17145;49.902;8.680;'2023-03-24 08:31:52';98910;;;13;55
30343;BME280;17145;49.902;8.680;'2023-03-24 08:34:20';98910;;;13;56
30343;BME280;17145;49.902;8.680;'2023-03-24 08:36:47';98920;;;12;57
30343;BME280;17145;49.902;8.680;'2023-03-24 08:39:14';98910;;;13;57
30343;BME280;17145;49.902;8.680;'2023-03-24 08:41:43';98910;;;13;57
30343;BME280;17145;49.902;8.680;'2023-03-24 08:44:10';98920;;;13;57
30343;BME280;17145;49.902;8.680;'2023-03-24 08:46:38';98920;;;13;57
30343;BME280;17145;49.902;8.680;'2023-03-24 08:49:05';98910;;;12;58
30343;BME280;17145;49.902;8.680;'2023-03-24 08:51:32';98910;;;13;57
30343;BME280;17145;49.902;8.680;'2023-03-24 08:54:00';98920;;;12;58
30343;BME280;17145;49.902;8.680;'2023-03-24 08:56:27';98910;;;12;58
30343;BME280;17145;49.902;8.680;'2023-03-24 08:58:55';98910;;;12;59
30343;BME280;17145;49.902;8.680;'2023-03-24 09:01:22';98910;;;12;59
30343;BME280;17145;49.902;8.680;'2023-03-24 09:03:49';98910;;;12;58
30343;BME280;17145;49.902;8.680;'2023-03-24 09:06:17';98900;;;12;59
30343;BME280;17145;49.902;8.680;'2023-03-24 09:08:44';98910;;;13;58
30343;BME280;17145;49.902;8.680;'2023-03-24 09:11:12';98910;;;12;58
30343;BME280;17145;49.902;8.680;'2023-03-24 09:13:39';98910;;;13;58
30343;BME280;17145;49.902;8.680;'2023-03-24 09:16:07';98900;;;12;60
30343;BME280;17145;49.902;8.680;'2023-03-24 09:18:36';98910;;;13;58
30343;BME280;17145;49.902;8.680;'2023-03-24 09:21:04';98920;;;12;59
30343;BME280;17145;49.902;8.680;'2023-03-24 09:23:31';98920;;;12;59
30343;BME280;17145;49.902;8.680;'2023-03-24 09:25:59';98910;;;12;60
30343;BME280;17145;49.902;8.680;'2023-03-24 09:28:26';98920;;;12;58
30343;BME280;17145;49.902;8.680;'2023-03-24 09:30:53';98920;;;13;58
30343;BME280;17145;49.902;8.680;'2023-03-24 09:33:21';98930;;;12;59
30343;BME280;17145;49.902;8.680;'2023-03-24 09:35:48';98950;;;12;58
30343;BME280;17145;49.902;8.680;'2023-03-24 09:38:16';98940;;;12;60
30343;BME280;17145;49.902;8.680;'2023-03-24 09:40:43';98940;;;12;60
30343;BME280;17145;49.902;8.680;'2023-03-24 09:43:14';98920;;;12;60
30343;BME280;17145;49.902;8.680;'2023-03-24 09:45:41';98930;;;12;60
30343;BME280;17145;49.902;8.680;'2023-03-24 09:48:09';98920;;;13;60
30343;BME280;17145;49.902;8.680;'2023-03-24 09:50:39';98930;;;12;60
30343;BME280;17145;49.902;8.680;'2023-03-24 09:53:08';98930;;;12;60
30343;BME280;17145;49.902;8.680;'2023-03-24 09:55:35';98920;;;12;60
30343;BME280;17145;49.902;8.680;'2023-03-24 09:58:03';98920;;;12;60
30343;BME280;17145;49.902;8.680;'2023-03-24 10:00:30';98920;;;13;60
30343;BME280;17145;49.902;8.680;'2023-03-24 10:02:58';98920;;;12;60
30343;BME280;17145;49.902;8.680;'2023-03-24 10:05:26';98920;;;12;61
30343;BME280;17145;49.902;8.680;'2023-03-24 10:07:53';98930;;;13;60
30343;BME280;17145;49.902;8.680;'2023-03-24 10:10:20';98940;;;13;59
30343;BME280;17145;49.902;8.680;'2023-03-24 10:12:49';98940;;;13;59
30343;BME280;17145;49.902;8.680;'2023-03-24 10:15:16';98940;;;12;59
30343;BME280;17145;49.902;8.680;'2023-03-24 10:17:44';98930;;;12;60
30343;BME280;17145;49.902;8.680;'2023-03-24 10:20:14';98940;;;13;59
30343;BME280;17145;49.902;8.680;'2023-03-24 10:22:43';98940;;;13;59
30343;BME280;17145;49.902;8.680;'2023-03-24 10:25:12';98940;;;13;59
30343;BME280;17145;49.902;8.680;'2023-03-24 10:27:40';98940;;;13;60
30343;BME280;17145;49.902;8.680;'2023-03-24 10:30:09';98940;;;13;59
30343;BME280;17145;49.902;8.680;'2023-03-24 10:32:37';98940;;;13;59
30343;BME280;17145;49.902;8.680;'2023-03-24 10:35:05';98930;;;13;60
30343;BME280;17145;49.902;8.680;'2023-03-24 10:37:34';98940;;;12;60
30343;BME280;17145;49.902;8.680;'2023-03-24 10:40:03';98930;;;12;60
30343;BME280;17145;49.902;8.680;'2023-03-24 10:42:36';98940;;;13;59
30343;BME280;17145;49.902;8.680;'2023-03-24 10:45:10';98940;;;13;59
30343;BME280;17145;49.902;8.680;'2023-03-24 10:47:42';98940;;;13;60
30343;BME280;17145;49.902;8.680;'2023-03-24 10:50:19';98940;;;13;60
30343;BME280;17145;49.902;8.680;'2023-03-24 10:52:51';98940;;;13;60
30343;BME280;17145;49.902;8.680;'2023-03-24 10:55:24';98990;;;12;62
30343;BME280;17145;49.902;8.680;'2023-03-24 10:57:55';98990;;;12;63
30343;BME280;17145;49.902;8.680;'2023-03-24 11:00:25';99020;;;12;62
30343;BME280;17145;49.902;8.680;'2023-03-24 11:02:53';99000;;;11;61
30343;BME280;17145;49.902;8.680;'2023-03-24 11:05:26';98990;;;11;61
30343;BME280;17145;49.902;8.680;'2023-03-24 11:08:01';98980;;;11;61
30343;BME280;17145;49.902;8.680;'2023-03-24 11:10:37';98990;;;11;60
30343;BME280;17145;49.902;8.680;'2023-03-24 11:13:11';98980;;;11;60
30343;BME280;17145;49.902;8.680;'2023-03-24 11:15:47';99010;;;11;62
30343;BME280;17145;49.902;8.680;'2023-03-24 11:18:32';99040;;;10;64
30343;BME280;17145;49.902;8.680;'2023-03-24 11:21:07';99050;;;10;66
30343;BME280;17145;49.902;8.680;'2023-03-24 11:23:39';99050;;;10;65
30343;BME280;17145;49.902;8.680;'2023-03-24 11:26:20';99060;;;10;65
30343;BME280;17145;49.902;8.680;'2023-03-24 11:28:51';99060;;;10;65
30343;BME280;17145;49.902;8.680;'2023-03-24 11:31:25';99080;;;10;65
30343;BME280;17145;49.902;8.680;'2023-03-24 11:33:53';99070;;;10;66
30343;BME280;17145;49.902;8.680;'2023-03-24 11:36:22';99070;;;10;67
30343;BME280;17145;49.902;8.680;'2023-03-24 11:38:50';99080;;;10;67
30343;BME280;17145;49.902;8.680;'2023-03-24 11:41:19';99080;;;10;67
30343;BME280;17145;49.902;8.680;'2023-03-24 11:43:49';99080;;;10;67
30343;BME280;17145;49.902;8.680;'2023-03-24 11:46:19';99070;;;10;67
30343;BME280;17145;49.902;8.680;'2023-03-24 11:48:49';99070;;;11;66
30343;BME280;17145;49.902;8.680;'2023-03-24 11:51:18';99060;;;11;65
30343;BME280;17145;49.902;8.680;'2023-03-24 11:53:47';99060;;;11;65
30343;BME280;17145;49.902;8.680;'2023-03-24 11:56:17';99070;;;11;64
30343;BME280;17145;49.902;8.680;'2023-03-24 11:58:46';99070;;;11;64
30343;BME280;17145;49.902;8.680;'2023-03-24 12:01:24';99070;;;12;63
30343;BME280;17145;49.902;8.680;'2023-03-24 12:03:57';99080;;;12;62
30343;BME280;17145;49.902;8.680;'2023-03-24 12:09:06';99080;;;12;60
30343;BME280;17145;49.902;8.680;'2023-03-24 12:11:34';99090;;;12;60
30343;BME280;17145;49.902;8.680;'2023-03-24 12:14:02';99090;;;12;60
30343;BME280;17145;49.902;8.680;'2023-03-24 12:16:34';99100;;;12;60
30343;BME280;17145;49.902;8.680;'2023-03-24 12:19:04';99100;;;12;61
30343;BME280;17145;49.902;8.680;'2023-03-24 12:21:35';99100;;;12;61
30343;BME280;17145;49.902;8.680;'2023-03-24 12:24:10';99090;;;12;59
30343;BME280;17145;49.902;8.680;'2023-03-24 12:26:39';99100;;;12;59
30343;BME280;17145;49.902;8.680;'2023-03-24 12:29:13';99080;;;12;59
30343;BME280;17145;49.902;8.680;'2023-03-24 12:31:41';99080;;;12;58
30343;BME280;17145;49.902;8.680;'2023-03-24 12:34:13';99080;;;12;58
30343;BME280;17145;49.902;8.680;'2023-03-24 12:36:46';99080;;;12;59
30343;BME280;17145;49.902;8.680;'2023-03-24 12:39:17';99080;;;12;56
30343;BME280;17145;49.902;8.680;'2023-03-24 12:41:57';99070;;;12;56
30343;BME280;17145;49.902;8.680;'2023-03-24 12:44:25';99070;;;12;55
30343;BME280;17145;49.902;8.680;'2023-03-24 12:46:57';99080;;;12;55
30343;BME280;17145;49.902;8.680;'2023-03-24 12:49:29';99090;;;12;54
30343;BME280;17145;49.902;8.680;'2023-03-24 12:51:57';99080;;;12;55
30343;BME280;17145;49.902;8.680;'2023-03-24 12:54:30';99080;;;13;56
30343;BME280;17145;49.902;8.680;'2023-03-24 12:57:01';99080;;;12;56
30343;BME280;17145;49.902;8.680;'2023-03-24 12:59:36';99080;;;13;55
30343;BME280;17145;49.902;8.680;'2023-03-24 13:02:15';99080;;;13;54
30343;BME280;17145;49.902;8.680;'2023-03-24 13:04:55';99090;;;13;53
30343;BME280;17145;49.902;8.680;'2023-03-24 13:07:43';99080;;;13;52
30343;BME280;17145;49.902;8.680;'2023-03-24 13:10:22';99080;;;13;54
30343;BME280;17145;49.902;8.680;'2023-03-24 13:13:00';99080;;;13;52
30343;BME280;17145;49.902;8.680;'2023-03-24 13:15:38';99090;;;13;52
30343;BME280;17145;49.902;8.680;'2023-03-24 13:18:22';99090;;;13;52
30343;BME280;17145;49.902;8.680;'2023-03-24 13:20:57';99090;;;13;52
30343;BME280;17145;49.902;8.680;'2023-03-24 13:23:33';99100;;;13;51
30343;BME280;17145;49.902;8.680;'2023-03-24 13:26:14';99100;;;13;52
30343;BME280;17145;49.902;8.680;'2023-03-24 13:28:53';99090;;;13;51
30343;BME280;17145;49.902;8.680;'2023-03-24 13:31:38';99080;;;13;50
30343;BME280;17145;49.902;8.680;'2023-03-24 13:34:17';99080;;;13;49
30343;BME280;17145;49.902;8.680;'2023-03-24 13:36:55';99090;;;13;49
30343;BME280;17145;49.902;8.680;'2023-03-24 13:39:28';99100;;;13;49
30343;BME280;17145;49.902;8.680;'2023-03-24 13:42:07';99090;;;13;49
30343;BME280;17145;49.902;8.680;'2023-03-24 13:44:52';99080;;;13;47
30343;BME280;17145;49.902;8.680;'2023-03-24 13:47:32';99080;;;13;47
30343;BME280;17145;49.902;8.680;'2023-03-24 13:50:15';99090;;;13;45
30343;BME280;17145;49.902;8.680;'2023-03-24 13:52:57';99090;;;14;47
30343;BME280;17145;49.902;8.680;'2023-03-24 13:55:32';99080;;;14;45
30343;BME280;17145;49.902;8.680;'2023-03-24 13:58:07';99080;;;15;45
30343;BME280;17145;49.902;8.680;'2023-03-24 14:00:40';99080;;;15;43
30343;BME280;17145;49.902;8.680;'2023-03-24 14:03:13';99060;;;15;44
30343;BME280;17145;49.902;8.680;'2023-03-24 14:05:48';99080;;;15;43
30343;BME280;17145;49.902;8.680;'2023-03-24 14:08:21';99060;;;15;43
30343;BME280;17145;49.902;8.680;'2023-03-24 14:10:51';99070;;;15;43
30343;BME280;17145;49.902;8.680;'2023-03-24 14:13:21';99070;;;14;43
30343;BME280;17145;49.902;8.680;'2023-03-24 14:15:53';99070;;;15;45
30343;BME280;17145;49.902;8.680;'2023-03-24 14:18:29';99060;;;15;44
30343;BME280;17145;49.902;8.680;'2023-03-24 14:21:03';99060;;;15;43
30343;BME280;17145;49.902;8.680;'2023-03-24 14:23:41';99050;;;14;43
30343;BME280;17145;49.902;8.680;'2023-03-24 14:26:19';99060;;;14;42
30343;BME280;17145;49.902;8.680;'2023-03-24 14:28:58';99060;;;15;43
30343;BME280;17145;49.902;8.680;'2023-03-24 14:31:29';99050;;;14;43
30343;BME280;17145;49.902;8.680;'2023-03-24 14:33:59';99050;;;15;41
30343;BME280;17145;49.902;8.680;'2023-03-24 14:36:41';99050;;;16;40
30343;BME280;17145;49.902;8.680;'2023-03-24 14:39:15';99050;;;16;39
30343;BME280;17145;49.902;8.680;'2023-03-24 14:41:48';99050;;;16;39
30343;BME280;17145;49.902;8.680;'2023-03-24 14:46:59';99040;;;18;37
30343;BME280;17145;49.902;8.680;'2023-03-24 14:49:29';99030;;;19;35
30343;BME280;17145;49.902;8.680;'2023-03-24 14:52:00';99030;;;19;32
30343;BME280;17145;49.902;8.680;'2023-03-24 14:54:31';99040;;;18;34
30343;BME280;17145;49.902;8.680;'2023-03-24 14:57:04';99040;;;19;31
30343;BME280;17145;49.902;8.680;'2023-03-24 14:59:39';99030;;;19;30
30343;BME280;17145;49.902;8.680;'2023-03-24 15:02:19';99030;;;21;30
30343;BME280;17145;49.902;8.680;'2023-03-24 15:04:48';99040;;;21;30
30343;BME280;17145;49.902;8.680;'2023-03-24 15:07:31';99030;;;20;30
30343;BME280;17145;49.902;8.680;'2023-03-24 15:10:00';99030;;;19;30
30343;BME280;17145;49.902;8.680;'2023-03-24 15:12:31';99030;;;18;32
30343;BME280;17145;49.902;8.680;'2023-03-24 15:15:14';99020;;;17;33
30343;BME280;17145;49.902;8.680;'2023-03-24 15:17:44';99020;;;17;34
30343;BME280;17145;49.902;8.680;'2023-03-24 15:20:25';99020;;;17;35
30343;BME280;17145;49.902;8.680;'2023-03-24 15:22:53';99010;;;16;34
30343;BME280;17145;49.902;8.680;'2023-03-24 15:25:25';99000;;;16;34
30343;BME280;17145;49.902;8.680;'2023-03-24 15:27:59';99010;;;16;33
30343;BME280;17145;49.902;8.680;'2023-03-24 15:30:28';99010;;;18;31
30343;BME280;17145;49.902;8.680;'2023-03-24 15:32:57';99000;;;18;32
30343;BME280;17145;49.902;8.680;'2023-03-24 15:35:32';99000;;;18;30
30343;BME280;17145;49.902;8.680;'2023-03-24 15:38:02';99020;;;17;31
30343;BME280;17145;49.902;8.680;'2023-03-24 15:40:36';99020;;;17;31
30343;BME280;17145;49.902;8.680;'2023-03-24 15:43:17';99030;;;17;33
30343;BME280;17145;49.902;8.680;'2023-03-24 15:45:54';99030;;;16;33
30343;BME280;17145;49.902;8.680;'2023-03-24 15:48:30';99030;;;16;33
30343;BME280;17145;49.902;8.680;'2023-03-24 15:51:02';99030;;;16;34
30343;BME280;17145;49.902;8.680;'2023-03-24 15:53:36';99030;;;16;34
30343;BME280;17145;49.902;8.680;'2023-03-24 15:56:10';99020;;;16;34
30343;BME280;17145;49.902;8.680;'2023-03-24 15:58:42';99020;;;15;35
30343;BME280;17145;49.902;8.680;'2023-03-24 16:01:10';99010;;;15;35